Data for 04/17/2013

Time Sea-Level Adjusted Pressure Absolute Pressure Temperature Relative Humidity Dew Point   
(mb) (inHg) (mb) (inHg) (C) (F) (%) (C) (F)
00:05 1023 30.21 852 25.16 -6.4 20.5 88 -8.1 17.3
00:10 1023 30.21 852 25.16 -6.4 20.4 86 -8.3 17
00:15 1023 30.21 852 25.16 -6.6 20.2 87 -8.4 16.9
00:20 1023 30.21 852 25.16 -6.6 20.1 87 -8.4 16.8
00:25 1023 30.21 852 25.16 -6.7 19.9 88 -8.4 16.9
00:30 1023 30.21 852 25.16 -6.7 19.9 89 -8.3 17.1
00:35 1023 30.21 852 25.16 -6.7 20 88 -8.3 17
00:40 1023 30.21 852 25.16 -6.8 19.8 88 -8.4 16.9
00:45 1023 30.21 852 25.16 -6.8 19.7 88 -8.4 16.8
00:50 1023 30.21 852 25.16 -6.9 19.6 89 -8.4 16.8
00:55 1023 30.21 852 25.16 -6.9 19.5 89 -8.5 16.8
01:00 1023 30.21 852 25.16 -7 19.4 89 -8.6 16.6
01:05 1023 30.21 852 25.16 -7.1 19.2 88 -8.7 16.3
01:10 1023 30.21 852 25.16 -7.2 19 88 -8.8 16.2
01:15 1023 30.21 852 25.16 -7.2 19 88 -8.9 16
01:20 1023 30.21 852 25.16 -7.3 18.9 88 -8.9 15.9
01:25 1023 30.21 852 25.16 -7.3 18.8 88 -9 15.9
01:30 1023 30.21 852 25.16 -7.3 18.8 88 -9 15.9
01:35 1023 30.21 852 25.16 -7.3 19 88 -8.9 15.9
01:40 1023 30.21 852 25.16 -7.2 19.1 87 -8.9 15.9
01:45 1023 30.21 852 25.16 -7.2 19 87 -9.1 15.7
01:50 1023 30.21 852 25.16 -7.3 18.8 87 -9.1 15.7
01:55 1023 30.21 852 25.16 -7.4 18.6 88 -9.1 15.6
02:00 1023 30.21 852 25.16 -7.5 18.5 88 -9.1 15.6
02:05 1023 30.21 852 25.16 -7.5 18.5 89 -9.1 15.6
02:10 1023 30.21 852 25.16 -7.6 18.4 89 -9.2 15.5
02:15 1023 30.21 852 25.16 -7.7 18.1 89 -9.2 15.4
02:20 1023 30.21 852 25.16 -7.9 17.8 89 -9.4 15.2
02:25 1023 30.21 852 25.16 -7.9 17.8 90 -9.3 15.2
02:30 1023 30.21 852 25.16 -7.9 17.8 89 -9.4 15.1
02:35 1023 30.21 852 25.16 -7.9 17.8 89 -9.3 15.2
02:40 1023 30.21 852 25.16 -7.8 17.9 88 -9.4 15
02:45 1023 30.21 852 25.16 -8 17.6 89 -9.5 14.9
02:50 1023 30.21 852 25.16 -8 17.5 89 -9.6 14.8
02:55 1023 30.21 852 25.16 -8.1 17.5 89 -9.6 14.7
03:00 1023 30.21 852 25.16 -8 17.6 89 -9.5 14.9
03:05 1023 30.21 852 25.16 -8 17.7 89 -9.5 14.9
03:10 1023 30.21 852 25.16 -8 17.6 89 -9.5 14.9
03:15 1023 30.21 852 25.16 -8 17.6 89 -9.6 14.8
03:20 1023 30.21 852 25.16 -8 17.7 89 -9.5 14.8
03:25 1023 30.21 852 25.16 -7.9 17.8 88 -9.5 14.9
03:30 1023 30.21 852 25.16 -7.9 17.7 89 -9.5 14.9
03:35 1023 30.21 852 25.16 -8 17.7 89 -9.5 14.9
03:40 1023 30.21 852 25.16 -8 17.6 89 -9.5 14.8
03:45 1023 30.21 852 25.16 -8.1 17.4 89 -9.6 14.7
03:50 1023 30.21 852 25.16 -8.1 17.4 89 -9.6 14.8
03:55 1023 30.21 852 25.16 -8.1 17.4 89 -9.7 14.6
04:00 1023 30.21 852 25.16 -8.1 17.4 89 -9.7 14.6
04:05 1023 30.21 852 25.16 -8.2 17.3 88 -9.8 14.4
04:10 1023 30.21 852 25.16 -8.2 17.3 88 -9.8 14.3
04:15 1023 30.21 852 25.16 -8.2 17.3 88 -9.8 14.3
04:20 1023 30.21 852 25.16 -8.2 17.3 88 -9.8 14.3
04:25 1023 30.21 852 25.16 -8.2 17.3 88 -9.8 14.4
04:30 1023 30.21 852 25.16 -8.1 17.4 88 -9.7 14.5
04:35 1023 30.21 852 25.16 -8.1 17.4 88 -9.8 14.4
04:40 1023 30.21 852 25.16 -8.1 17.3 88 -9.7 14.5
04:45 1023 30.21 852 25.16 -8.1 17.4 88 -9.7 14.5
04:50 1023 30.21 852 25.16 -8.2 17.2 89 -9.7 14.5
04:55 1023 30.21 852 25.16 -8.2 17.2 89 -9.7 14.6
05:00 1023 30.21 852 25.16 -8.1 17.5 89 -9.6 14.7
05:05 1023 30.21 852 25.16 -8.1 17.5 88 -9.7 14.5
05:10 1023 30.21 852 25.16 -8.1 17.5 89 -9.6 14.6
05:15 1023 30.21 852 25.16 -8.2 17.2 89 -9.7 14.5
05:20 1023 30.21 852 25.16 -8.2 17.2 89 -9.7 14.6
05:25 1023 30.21 852 25.16 -8.2 17.2 89 -9.8 14.4
05:30 1023 30.21 852 25.16 -8.3 17.1 89 -9.8 14.4
05:35 1023 30.21 852 25.16 -8.4 16.9 88 -10 14
05:40 1023 30.21 852 25.16 -8.3 17 87 -10.1 13.9
05:45 1023 30.21 852 25.16 -8.3 17 87 -10.1 13.8
05:50 1023 30.21 852 25.16 -8.3 17.1 87 -10 13.9
05:55 1023 30.21 852 25.16 -8.2 17.3 86 -10.2 13.7
06:00 1023 30.21 852 25.16 -8.1 17.5 84 -10.3 13.4
06:05 1023 30.21 852 25.16 -8 17.7 80 -10.8 12.5
06:10 1023 30.21 852 25.16 -8.1 17.4 83 -10.6 13
06:15 1023 30.21 852 25.16 -8.4 16.9 82 -11 12.2
06:20 1023 30.21 852 25.16 -8.4 16.8 79 -11.4 11.5
06:25 1023 30.21 852 25.16 -8.4 16.8 80 -11.3 11.6
06:30 1023 30.21 852 25.16 -8.4 16.9 80 -11.3 11.7
06:35 1023 30.21 852 25.16 -8.4 17 79 -11.3 11.6
06:40 1023 30.21 852 25.16 -8.5 16.8 80 -11.4 11.5
06:45 1023 30.21 852 25.16 -8.5 16.8 80 -11.3 11.6
06:50 1023 30.21 852 25.16 -8.5 16.6 77 -11.8 10.7
06:55 1023 30.21 853 25.19 -8.5 16.6 78 -11.7 11
07:00 1023 30.21 853 25.19 -8.5 16.7 78 -11.7 11
07:05 1023 30.21 853 25.19 -8.5 16.8 79 -11.4 11.5
07:10 1023 30.21 853 25.19 -8.1 17.4 76 -11.6 11.1
07:15 1023 30.21 853 25.19 -8 17.7 75 -11.7 11
07:20 1023 30.21 853 25.19 -7.8 18 74 -11.6 11.1
07:25 1023 30.21 853 25.19 -7.6 18.3 75 -11.4 11.6
07:30 1023 30.21 853 25.19 -7.7 18.2 74 -11.6 11.2
07:35 1023 30.21 853 25.19 -7.5 18.4 73 -11.7 11
07:40 1023 30.21 853 25.19 -7.5 18.5 73 -11.5 11.3
07:45 1023 30.21 853 25.19 -7.7 18.1 74 -11.6 11.1
07:50 1024 30.24 853 25.19 -7.2 19 71 -11.6 11.2
07:55 1024 30.24 853 25.19 -7 19.4 69 -11.7 10.9
08:00 1024 30.24 853 25.19 -6.1 21 65 -11.8 10.8
08:05 1024 30.24 853 25.19 -6.5 20.3 64 -12.2 10.1
08:10 1024 30.24 853 25.19 -6.7 19.9 67 -11.9 10.5
08:15 1024 30.24 853 25.19 -6.8 19.8 69 -11.5 11.2
08:20 1024 30.24 853 25.19 -6.2 20.9 64 -12 10.4
08:25 1024 30.24 853 25.19 -5.6 21.8 61 -12 10.4
08:30 1024 30.24 853 25.19 -5.8 21.5 65 -11.5 11.4
08:35 1024 30.24 853 25.19 -5.7 21.7 63 -11.6 11.1
08:40 1024 30.24 853 25.19 -5.8 21.6 64 -11.5 11.3
08:45 1024 30.24 853 25.19 -5.6 22 62 -11.8 10.7
08:50 1024 30.24 853 25.19 -5.4 22.3 64 -11.1 12
08:55 1024 30.24 853 25.19 -5.2 22.6 61 -11.5 11.3
09:00 1024 30.24 853 25.19 -5.5 22.1 65 -11.1 12.1
09:05 1024 30.24 853 25.19 -5 22.9 61 -11.5 11.2
09:10 1024 30.24 853 25.19 -5.1 22.9 67 -10.3 13.5
09:15 1024 30.24 853 25.19 -4.7 23.6 68 -9.7 14.5
09:20 1024 30.24 853 25.19 -4.1 24.6 59 -11 12.2
09:25 1024 30.24 853 25.19 -4.7 23.5 66 -10.2 13.6
09:30 1024 30.24 853 25.19 -4.5 23.9 63 -10.6 12.9
09:35 1024 30.24 853 25.19 -4.2 24.4 67 -9.4 15
09:40 1024 30.24 853 25.19 -3.8 25.1 65 -9.4 15
09:45 1024 30.24 853 25.19 -4.1 24.6 65 -9.7 14.5
09:50 1024 30.24 853 25.19 -4.2 24.4 64 -10.1 13.9
09:55 1024 30.24 853 25.19 -4.1 24.6 64 -9.9 14.2
10:00 1024 30.24 853 25.19 -3.8 25.2 63 -9.8 14.3
10:05 1024 30.24 853 25.19 -3.6 25.4 59 -10.6 12.9
10:10 1024 30.24 853 25.19 -3.8 25.1 62 -10.1 13.7
10:15 1024 30.24 853 25.19 -3.7 25.4 63 -9.8 14.4
10:20 1024 30.24 853 25.19 -3.3 26.1 58 -10.3 13.4
10:25 1024 30.24 853 25.19 -3.8 25.2 62 -9.9 14.1
10:30 1024 30.24 853 25.19 -3.8 25.2 61 -10.2 13.6
10:35 1024 30.24 853 25.19 -3.9 24.9 60 -10.7 12.7
10:40 1024 30.24 853 25.19 -4.1 24.6 60 -10.8 12.5
10:45 1024 30.24 853 25.19 -4 24.9 61 -10.5 13.1
10:50 1024 30.24 853 25.19 -3.8 25.1 61 -10.3 13.4
10:55 1024 30.24 853 25.19 -3.6 25.5 59 -10.6 12.9
11:00 1024 30.24 853 25.19 -3.7 25.3 55 -11.6 11.1
11:05 1024 30.24 853 25.19 -3.5 25.7 57 -10.9 12.4
11:10 1024 30.24 853 25.19 -3.5 25.7 55 -11.4 11.5
11:15 1024 30.24 853 25.19 -2.5 27.6 47 -12.3 9.9
11:20 1024 30.24 853 25.19 -2.8 26.9 51 -11.5 11.2
11:25 1024 30.24 853 25.19 -3.2 26.2 51 -11.9 10.5
11:30 1024 30.24 853 25.19 -3 26.6 49 -12.4 9.7
11:35 1023 30.21 853 25.19 -3.3 26.1 50 -12.3 9.9
11:40 1024 30.24 853 25.19 -3 26.7 48 -12.4 9.6
11:45 1023 30.21 853 25.19 -2.1 28.2 45 -12.6 9.3
11:50 1023 30.21 853 25.19 -1.7 29 46 -11.8 10.7
11:55 1023 30.21 853 25.19 -2.1 28.2 49 -11.5 11.4
12:00 1023 30.21 853 25.19 -2.3 27.9 46 -12.5 9.5
12:05 1023 30.21 853 25.19 -2 28.4 44 -12.7 9.1
12:10 1023 30.21 853 25.19 -2.1 28.2 46 -12.2 10
12:15 1023 30.21 853 25.19 -2 28.4 46 -12.1 10.3
12:20 1023 30.21 853 25.19 -2.4 27.6 53 -10.8 12.6
12:25 1023 30.21 853 25.19 -2.6 27.4 57 -10 13.9
12:30 1023 30.21 853 25.19 -2.9 26.7 55 -10.7 12.8
12:35 1023 30.21 853 25.19 -3.2 26.3 55 -11 12.2
12:40 1023 30.21 852 25.16 -3 26.7 55 -10.7 12.8
12:45 1023 30.21 852 25.16 -2 28.3 49 -11.5 11.4
12:50 1023 30.21 852 25.16 -1.9 28.5 46 -12.1 10.2
12:55 1023 30.21 852 25.16 -1.6 29.1 50 -10.6 12.8
13:00 1023 30.21 853 25.19 -1.3 29.6 49 -10.8 12.5
13:05 1023 30.21 852 25.16 -2 28.4 50 -11.1 12.1
13:10 1023 30.21 852 25.16 -1.8 28.7 46 -12 10.3
13:15 1023 30.21 852 25.16 -1 30.3 46 -11.2 11.8
13:20 1023 30.21 852 25.16 -0.5 31.1 45 -11 12.2
13:25 1023 30.21 852 25.16 -0.3 31.4 47 -10.4 13.3
13:30 1023 30.21 853 25.19 -0.7 30.7 49 -10.1 13.8
13:35 1023 30.21 853 25.19 -0.6 30.8 51 -9.6 14.7
13:40 1023 30.21 852 25.16 -0.7 30.7 52 -9.3 15.2
13:45 1023 30.21 852 25.16 -0.8 30.6 51 -9.7 14.6
13:50 1023 30.21 852 25.16 -0.6 30.8 51 -9.7 14.6
13:55 1023 30.21 852 25.16 -0.7 30.7 49 -10.1 13.9
14:00 1023 30.21 852 25.16 -0.3 31.4 47 -10.3 13.5
14:05 1023 30.21 852 25.16 -0.6 30.9 47 -10.6 12.9
14:10 1023 30.21 852 25.16 -0.7 30.8 46 -10.8 12.5
14:15 1023 30.21 852 25.16 -0.7 30.7 51 -9.8 14.4
14:20 1023 30.21 852 25.16 -1.1 30 51 -10.1 13.8
14:25 1023 30.21 852 25.16 -0.7 30.7 46 -10.8 12.5
14:30 1023 30.21 852 25.16 0.3 32.6 41 -11.3 11.6
14:35 1023 30.21 852 25.16 0.6 33 44 -10.4 13.2
14:40 1023 30.21 852 25.16 -0.8 30.6 45 -11.3 11.6
14:45 1023 30.21 852 25.16 0.4 32.7 38 -12.3 9.9
14:50 1023 30.21 852 25.16 0.8 33.5 37 -12.5 9.6
14:55 1023 30.21 852 25.16 1.1 34.1 37 -12.1 10.2
15:00 1023 30.21 852 25.16 0.9 33.7 37 -12.2 10.1
15:05 1023 30.21 852 25.16 1 33.8 38 -11.8 10.8
15:10 1023 30.21 852 25.16 0.7 33.2 41 -11 12.2
15:15 1023 30.21 852 25.16 0.2 32.3 43 -11 12.2
15:20 1023 30.21 852 25.16 0 32.1 45 -10.7 12.8
15:25 1023 30.21 852 25.16 0.2 32.4 41 -11.4 11.5
15:30 1023 30.21 852 25.16 0.1 32.2 45 -10.5 13.1
15:35 1023 30.21 852 25.16 0.3 32.6 43 -10.8 12.6
15:40 1023 30.21 852 25.16 0.2 32.3 45 -10.3 13.5
15:45 1023 30.21 852 25.16 -0.2 31.7 51 -9.1 15.6
15:50 1023 30.21 852 25.16 -0.5 31.1 56 -8.2 17.2
15:55 1023 30.21 852 25.16 -0.6 30.9 53 -9 15.8
16:00 1023 30.21 852 25.16 -0.8 30.6 56 -8.5 16.7
16:05 1023 30.21 852 25.16 -0.7 30.7 56 -8.3 17
16:10 1023 30.21 852 25.16 -1 30.2 51 -10 14.1
16:15 1023 30.21 852 25.16 0.1 32.1 40 -11.9 10.6
16:20 1023 30.21 852 25.16 0.9 33.7 38 -11.7 10.9
16:25 1023 30.21 852 25.16 1 33.7 40 -11.1 12
16:30 1023 30.21 852 25.16 0.1 32.1 43 -11.2 11.8
16:35 1023 30.21 852 25.16 -0.2 31.6 44 -11.2 11.9
16:40 1023 30.21 852 25.16 0.1 32.2 40 -12.1 10.2
16:45 1023 30.21 852 25.16 0.5 32.9 40 -11.7 11
16:50 1023 30.21 852 25.16 0.5 32.8 40 -11.6 11
16:55 1023 30.21 852 25.16 0 32 41 -11.9 10.6
17:00 1023 30.21 852 25.16 -0.2 31.6 41 -11.8 10.7
17:05 1023 30.21 853 25.19 -0.5 31 45 -11.1 12.1
17:10 1023 30.21 852 25.16 -0.7 30.8 44 -11.5 11.3
17:15 1023 30.21 853 25.19 -0.8 30.6 45 -11.4 11.4
17:20 1023 30.21 853 25.19 -0.1 31.8 42 -11.5 11.4
17:25 1023 30.21 853 25.19 0.2 32.3 42 -11.2 11.9
17:30 1023 30.21 853 25.19 0.2 32.4 41 -11.5 11.4
17:35 1023 30.21 853 25.19 0 32 42 -11.3 11.6
17:40 1023 30.21 853 25.19 -1 30.3 45 -11.5 11.2
17:45 1023 30.21 853 25.19 -1.3 29.7 45 -11.9 10.6
17:50 1023 30.21 853 25.19 -1.1 30 44 -11.9 10.7
17:55 1023 30.21 852 25.16 -0.7 30.8 42 -11.9 10.5
18:00 1023 30.21 852 25.16 -0.7 30.8 43 -11.9 10.6
18:05 1023 30.21 852 25.16 -0.5 31.2 42 -11.8 10.8
18:10 1023 30.21 852 25.16 -0.3 31.4 43 -11.5 11.3
18:15 1023 30.21 852 25.16 -0.4 31.2 43 -11.5 11.3
18:20 1023 30.21 852 25.16 -0.7 30.7 43 -11.9 10.6
18:25 1023 30.21 852 25.16 -0.9 30.3 44 -11.8 10.7
18:30 1023 30.21 852 25.16 -1.1 30 45 -11.5 11.2
18:35 1023 30.21 852 25.16 -1.1 30.1 44 -11.9 10.6
18:40 1023 30.21 852 25.16 -1.2 29.9 44 -12 10.4
18:45 1023 30.21 852 25.16 -1.2 29.9 43 -12.2 10.1
18:50 1023 30.21 852 25.16 -1.3 29.7 45 -11.7 11
18:55 1023 30.21 852 25.16 -1.3 29.7 45 -11.7 10.9
19:00 1023 30.21 852 25.16 -1.3 29.7 46 -11.6 11.2
19:05 1023 30.21 852 25.16 -1.5 29.4 47 -11.4 11.5
19:10 1023 30.21 852 25.16 -1.5 29.3 47 -11.6 11.2
19:15 1023 30.21 852 25.16 -1.6 29.1 47 -11.5 11.3
19:20 1023 30.21 853 25.19 -1.7 28.9 47 -11.7 10.9
19:25 1023 30.21 853 25.19 -1.8 28.8 48 -11.5 11.3
19:30 1023 30.21 853 25.19 -1.8 28.7 49 -11.2 11.8
19:35 1023 30.21 853 25.19 -1.9 28.6 49 -11.2 11.8
19:40 1023 30.21 853 25.19 -2 28.4 50 -11.2 11.9
19:45 1023 30.21 853 25.19 -2 28.3 50 -11.2 11.8
19:50 1023 30.21 853 25.19 -2.1 28.3 50 -11.2 11.8
19:55 1023 30.21 853 25.19 -2.1 28.2 50 -11.1 11.9
20:00 1023 30.21 853 25.19 -2.2 28 51 -10.9 12.3
20:05 1023 30.21 853 25.19 -2.5 27.4 53 -10.8 12.6
20:10 1023 30.21 853 25.19 -2.8 26.9 55 -10.7 12.7
20:15 1023 30.21 853 25.19 -3 26.6 55 -10.9 12.4
20:20 1023 30.21 853 25.19 -3.3 26.1 55 -11.2 11.9
20:25 1023 30.21 853 25.19 -3.3 26 55 -11.2 11.9
20:30 1024 30.24 853 25.19 -3.2 26.2 54 -11.3 11.7
20:35 1024 30.24 853 25.19 -3.4 25.9 57 -10.7 12.7
20:40 1024 30.24 853 25.19 -3.6 25.6 57 -11 12.2
20:45 1024 30.24 853 25.19 -3.8 25.2 57 -11.2 11.8
20:50 1024 30.24 853 25.19 -3.9 24.9 58 -11.1 12.1
20:55 1024 30.24 853 25.19 -4.2 24.4 59 -11 12.2
21:00 1024 30.24 853 25.19 -4.4 24.1 60 -10.9 12.3
21:05 1024 30.24 853 25.19 -4.6 23.8 63 -10.7 12.8
21:10 1024 30.24 853 25.19 -4.7 23.6 64 -10.5 13
21:15 1024 30.24 853 25.19 -4.7 23.5 64 -10.6 12.9
21:20 1024 30.24 853 25.19 -4.9 23.2 64 -10.6 12.8
21:25 1024 30.24 853 25.19 -5.1 22.9 64 -10.8 12.5
21:30 1024 30.24 853 25.19 -5.2 22.6 65 -10.9 12.4
21:35 1024 30.24 853 25.19 -5.2 22.6 65 -10.8 12.6
21:40 1023 30.21 853 25.19 -5.2 22.7 67 -10.5 13.1
21:45 1023 30.21 853 25.19 -5.2 22.6 67 -10.4 13.3
21:50 1023 30.21 853 25.19 -5.3 22.4 67 -10.4 13.2
21:55 1023 30.21 853 25.19 -5.4 22.4 68 -10.4 13.3
22:00 1023 30.21 853 25.19 -5.4 22.3 68 -10.5 13.1
22:05 1023 30.21 853 25.19 -5.4 22.2 68 -10.5 13.1
22:10 1023 30.21 853 25.19 -5.5 22 68 -10.6 12.9
22:15 1023 30.21 853 25.19 -5.7 21.7 68 -10.7 12.7
22:20 1023 30.21 853 25.19 -5.8 21.6 68 -10.8 12.5
22:25 1023 30.21 852 25.16 -5.7 21.7 67 -10.9 12.4
22:30 1023 30.21 852 25.16 -5.9 21.4 66 -11.2 11.8
22:35 1023 30.21 852 25.16 -6 21.3 66 -11.3 11.7
22:40 1023 30.21 852 25.16 -6 21.2 67 -11.2 11.8
22:45 1023 30.21 852 25.16 -6.1 20.9 67 -11.3 11.7
22:50 1023 30.21 852 25.16 -6.2 20.8 69 -11.1 12
22:55 1023 30.21 852 25.16 -6.4 20.5 69 -11.1 12
23:00 1023 30.21 852 25.16 -6.4 20.5 69 -11.2 11.9
23:05 1023 30.21 852 25.16 -6.5 20.4 69 -11.2 11.8
23:10 1023 30.21 852 25.16 -6.7 19.9 70 -11.3 11.6
23:15 1023 30.21 852 25.16 -6.9 19.6 70 -11.4 11.4
23:20 1023 30.21 852 25.16 -6.9 19.5 70 -11.5 11.3
23:25 1023 30.21 852 25.16 -7 19.4 69 -11.7 11
23:30 1023 30.21 852 25.16 -7 19.4 69 -11.8 10.8
23:35 1023 30.21 852 25.16 -7 19.4 69 -11.8 10.7
23:40 1023 30.21 852 25.16 -7 19.5 68 -11.8 10.7
23:45 1023 30.21 852 25.16 -7 19.4 68 -11.9 10.6
23:50 1023 30.21 852 25.16 -7 19.3 68 -12 10.5
23:55 1023 30.21 852 25.16 -7.1 19.2 69 -11.9 10.5
24:00 1023 30.21 852 25.16 -7.1 19.2 68 -12 10.4